createdAt,value
2017-06-01T00:00:13.663Z,983.44
2017-06-01T00:01:23.923Z,983.44
2017-06-01T00:02:33.867Z,983.49
2017-06-01T00:03:44.151Z,983.48
2017-06-01T00:04:54.410Z,983.5
2017-06-01T00:06:04.661Z,983.56
2017-06-01T00:07:14.917Z,983.52
2017-06-01T00:08:24.893Z,983.55
2017-06-01T00:09:35.173Z,983.5
2017-06-01T00:10:45.433Z,983.51
2017-06-01T00:11:55.694Z,983.55
2017-06-01T00:13:05.954Z,983.57
2017-06-01T00:14:15.899Z,983.57
2017-06-01T00:15:25.838Z,983.55
2017-06-01T00:16:35.785Z,983.63
2017-06-01T00:17:46.044Z,983.6
2017-06-01T00:20:09.993Z,983.62
2017-06-01T00:21:19.941Z,983.59
2017-06-01T00:22:29.578Z,983.57
2017-06-01T00:23:39.841Z,983.59
2017-06-01T00:24:49.793Z,983.55
2017-06-01T00:26:00.049Z,983.62
2017-06-01T00:27:09.994Z,983.66
2017-06-01T00:28:19.628Z,983.63
2017-06-01T00:29:29.891Z,983.61
2017-06-01T00:30:40.159Z,983.55
2017-06-01T00:31:50.413Z,983.62
2017-06-01T00:33:00.045Z,983.61
2017-06-01T00:34:09.672Z,983.62
2017-06-01T00:35:19.612Z,983.61
2017-06-01T00:36:29.867Z,983.56
2017-06-01T00:37:40.132Z,983.58
2017-06-01T00:38:50.082Z,983.65
2017-06-01T00:40:00.350Z,983.69
2017-06-01T00:41:09.977Z,983.7
2017-06-01T00:42:19.607Z,983.67
2017-06-01T00:43:29.560Z,983.71
2017-06-01T00:44:39.814Z,983.7
2017-06-01T00:45:50.072Z,983.73
2017-06-01T00:47:00.331Z,983.72
2017-06-01T00:48:10.275Z,983.69
2017-06-01T00:49:20.630Z,983.71
2017-06-01T00:50:30.884Z,983.76
2017-06-01T00:51:41.139Z,983.79
2017-06-01T00:52:51.082Z,983.76
2017-06-01T00:54:00.726Z,983.82
2017-06-01T00:55:10.243Z,983.79
2017-06-01T00:56:20.192Z,983.79
2017-06-01T00:57:30.139Z,983.74
2017-06-01T00:58:40.395Z,983.77
2017-06-01T00:59:50.334Z,983.77
2017-06-01T01:01:00.594Z,983.78
2017-06-01T01:02:10.850Z,983.75
2017-06-01T01:03:21.108Z,983.77
2017-06-01T01:04:30.747Z,983.74
2017-06-01T01:05:41.011Z,983.82
2017-06-01T01:06:51.278Z,983.81
2017-06-01T01:08:00.904Z,983.83
2017-06-01T01:09:11.180Z,983.83
2017-06-01T01:10:21.146Z,983.83
2017-06-01T01:11:31.181Z,983.83
2017-06-01T01:12:41.441Z,983.89
2017-06-01T01:13:51.705Z,983.85
2017-06-01T01:15:01.647Z,983.85
2017-06-01T01:16:11.912Z,983.8
2017-06-01T01:17:21.864Z,983.86
2017-06-01T01:18:31.810Z,983.89
2017-06-01T01:19:42.064Z,983.88
2017-06-01T01:20:51.706Z,983.91
2017-06-01T01:22:01.970Z,983.91
2017-06-01T01:23:11.928Z,983.92
2017-06-01T01:24:22.182Z,983.88
2017-06-01T01:25:32.125Z,983.9
2017-06-01T01:26:42.390Z,983.9
2017-06-01T01:27:52.335Z,983.87
2017-06-01T01:29:02.583Z,983.95
2017-06-01T01:30:12.523Z,983.96
2017-06-01T01:31:22.468Z,983.99
2017-06-01T01:32:32.738Z,983.98
2017-06-01T01:33:42.991Z,983.97
2017-06-01T01:34:53.242Z,983.95
2017-06-01T01:36:03.505Z,983.98
2017-06-01T01:37:13.768Z,983.93
2017-06-01T01:38:23.721Z,983.93
2017-06-01T01:39:33.979Z,983.93
2017-06-01T01:40:44.230Z,983.95
2017-06-01T01:41:54.558Z,983.95
2017-06-01T01:43:04.810Z,983.91
2017-06-01T01:44:14.754Z,983.94
2017-06-01T01:45:25.022Z,983.94
2017-06-01T01:46:35.279Z,984
2017-06-01T01:47:45.548Z,984.01
2017-06-01T01:48:55.488Z,984
2017-06-01T01:50:05.740Z,983.99
2017-06-01T01:51:16.007Z,983.99
2017-06-01T01:52:26.258Z,984
2017-06-01T01:53:36.200Z,984.03
2017-06-01T01:54:46.152Z,984.04
2017-06-01T01:55:56.413Z,984.07
2017-06-01T01:57:06.668Z,984.06
2017-06-01T01:58:16.925Z,984.08
2017-06-01T01:59:27.269Z,984.07
2017-06-01T02:00:37.564Z,984.06
2017-06-01T02:01:47.203Z,984.08
2017-06-01T02:02:57.466Z,984.06
2017-06-01T02:04:07.722Z,984.09
2017-06-01T02:05:17.988Z,984.09
2017-06-01T02:06:28.273Z,984.06
2017-06-01T02:07:38.216Z,984.04
2017-06-01T02:08:47.848Z,984.04
2017-06-01T02:09:57.473Z,984.04
2017-06-01T02:11:07.426Z,984
2017-06-01T02:12:17.377Z,984.03
2017-06-01T02:13:27.321Z,984.08
2017-06-01T02:14:36.638Z,984.07
2017-06-01T02:15:46.893Z,984.11
2017-06-01T02:16:56.833Z,984.09
2017-06-01T02:18:07.098Z,984.12
2017-06-01T02:19:17.357Z,984.14
2017-06-01T02:20:27.391Z,984.11
2017-06-01T02:21:37.336Z,984.11
2017-06-01T02:22:47.598Z,984.11
2017-06-01T02:23:57.851Z,984.07
2017-06-01T02:25:07.793Z,984.08
2017-06-01T02:26:18.052Z,984.13
2017-06-01T02:27:27.994Z,984.1
2017-06-01T02:28:38.251Z,984.1
2017-06-01T02:29:48.514Z,984.06
2017-06-01T02:30:58.795Z,984.05
2017-06-01T02:32:09.055Z,984.14
2017-06-01T02:33:18.684Z,984.1
2017-06-01T02:34:28.943Z,984.09
2017-06-01T02:35:38.577Z,984.09
2017-06-01T02:36:48.518Z,984.06
2017-06-01T02:37:58.775Z,984.09
2017-06-01T02:39:08.715Z,984.1
2017-06-01T02:40:18.975Z,984.03
2017-06-01T02:41:28.922Z,984.04
2017-06-01T02:42:38.866Z,984.14
2017-06-01T02:43:48.820Z,984.11
2017-06-01T02:44:59.076Z,984.09
2017-06-01T02:46:09.332Z,984.08
2017-06-01T02:47:19.277Z,984.12
2017-06-01T02:48:29.530Z,984.17
2017-06-01T02:49:39.787Z,984.17
2017-06-01T02:50:50.048Z,984.11
2017-06-01T02:51:59.994Z,984.1
2017-06-01T02:53:10.257Z,984.14
2017-06-01T02:54:20.199Z,984.19
2017-06-01T02:55:30.456Z,984.19
2017-06-01T02:56:40.718Z,984.16
2017-06-01T02:57:50.982Z,984.2
2017-06-01T02:59:00.921Z,984.18
2017-06-01T03:00:10.549Z,984.17
2017-06-01T03:01:20.493Z,984.2
2017-06-01T03:02:30.436Z,984.19
2017-06-01T03:03:40.384Z,984.13
2017-06-01T03:04:50.642Z,984.1
2017-06-01T03:06:00.902Z,984.11
2017-06-01T03:07:11.158Z,984.13
2017-06-01T03:08:21.093Z,984.15
2017-06-01T03:09:31.348Z,984.14
2017-06-01T03:10:41.617Z,984.14
2017-06-01T03:11:51.579Z,984.23
2017-06-01T03:13:01.840Z,984.19
2017-06-01T03:14:11.778Z,984.17
2017-06-01T03:15:22.029Z,984.18
2017-06-01T03:16:32.286Z,984.26
2017-06-01T03:17:42.230Z,984.23
2017-06-01T03:18:52.175Z,984.26
2017-06-01T03:20:01.804Z,984.24
2017-06-01T03:21:11.755Z,984.17
2017-06-01T03:22:21.389Z,984.21
2017-06-01T03:23:31.642Z,984.26
2017-06-01T03:24:41.274Z,984.22
2017-06-01T03:25:51.598Z,984.22
2017-06-01T03:27:01.857Z,984.18
2017-06-01T03:28:11.800Z,984.23
2017-06-01T03:29:21.738Z,984.33
2017-06-01T03:30:32.044Z,984.28
2017-06-01T03:31:42.306Z,984.25
2017-06-01T03:32:51.937Z,984.35
2017-06-01T03:34:01.885Z,984.32
2017-06-01T03:35:12.145Z,984.35
2017-06-01T03:36:22.407Z,984.32
2017-06-01T03:37:32.672Z,984.36
2017-06-01T03:38:42.925Z,984.29
2017-06-01T03:39:53.188Z,984.3
2017-06-01T03:41:03.131Z,984.36
2017-06-01T03:42:13.386Z,984.32
2017-06-01T03:43:23.015Z,984.27
2017-06-01T03:44:32.642Z,984.28
2017-06-01T03:45:42.588Z,984.33
2017-06-01T03:46:52.602Z,984.34
2017-06-01T03:48:02.552Z,984.3
2017-06-01T03:49:12.186Z,984.32
2017-06-01T03:50:22.453Z,984.33
2017-06-01T03:51:32.711Z,984.4
2017-06-01T03:52:42.965Z,984.41
2017-06-01T03:53:53.226Z,984.36
2017-06-01T03:55:03.180Z,984.39
2017-06-01T03:56:12.815Z,984.47
2017-06-01T03:57:23.072Z,984.42
2017-06-01T03:58:33.012Z,984.43
2017-06-01T03:59:42.972Z,984.42
2017-06-01T04:00:53.235Z,984.41
2017-06-01T04:02:03.491Z,984.42
2017-06-01T04:03:13.434Z,984.39
2017-06-01T04:04:23.060Z,984.35
2017-06-01T04:05:32.690Z,984.41
2017-06-01T04:06:42.949Z,984.29
2017-06-01T04:07:53.211Z,984.32
2017-06-01T04:09:03.469Z,984.34
2017-06-01T04:10:13.731Z,984.36
2017-06-01T04:11:23.676Z,984.31
2017-06-01T04:12:33.305Z,984.36
2017-06-01T04:13:43.564Z,984.36
2017-06-01T04:14:53.206Z,984.36
2017-06-01T04:16:03.148Z,984.37
2017-06-01T04:17:13.093Z,984.39
2017-06-01T04:18:23.404Z,984.39
2017-06-01T04:19:33.406Z,984.4
2017-06-01T04:20:43.700Z,984.45
2017-06-01T04:21:53.651Z,984.45
2017-06-01T04:23:03.592Z,984.48
2017-06-01T04:24:13.537Z,984.46
2017-06-01T04:25:23.795Z,984.43
2017-06-01T04:26:34.048Z,984.44
2017-06-01T04:27:44.312Z,984.51
2017-06-01T04:28:54.250Z,984.44
2017-06-01T04:30:04.509Z,984.46
2017-06-01T04:31:13.827Z,984.39
2017-06-01T04:32:23.768Z,984.43
2017-06-01T04:33:33.708Z,984.43
2017-06-01T04:34:43.964Z,984.39
2017-06-01T04:35:54.231Z,984.49
2017-06-01T04:37:04.489Z,984.45
2017-06-01T04:38:14.435Z,984.45
2017-06-01T04:39:24.394Z,984.42
2017-06-01T04:40:34.343Z,984.45
2017-06-01T04:41:44.601Z,984.43
2017-06-01T04:42:54.238Z,984.39
2017-06-01T04:44:04.500Z,984.45
2017-06-01T04:45:14.131Z,984.46
2017-06-01T04:46:23.450Z,984.38
2017-06-01T04:47:33.707Z,984.43
2017-06-01T04:48:44.041Z,984.42
2017-06-01T04:49:54.320Z,984.47
2017-06-01T04:51:04.264Z,984.49
2017-06-01T04:52:14.528Z,984.49
2017-06-01T04:53:24.787Z,984.47
2017-06-01T04:54:34.111Z,984.49
2017-06-01T04:55:44.064Z,984.5
2017-06-01T04:56:54.009Z,984.54
2017-06-01T04:58:03.643Z,984.49
2017-06-01T04:59:13.952Z,984.48
2017-06-01T05:00:24.212Z,984.48
2017-06-01T05:01:34.470Z,984.54
2017-06-01T05:02:44.736Z,984.51
2017-06-01T05:03:54.682Z,984.52
2017-06-01T05:05:04.938Z,984.53
2017-06-01T05:06:14.885Z,984.53
2017-06-01T05:07:24.523Z,984.58
2017-06-01T05:08:34.471Z,984.61
2017-06-01T05:09:44.106Z,984.66
2017-06-01T05:10:54.056Z,984.64
2017-06-01T05:12:04.315Z,984.64
2017-06-01T05:13:13.947Z,984.66
2017-06-01T05:14:23.893Z,984.64
2017-06-01T05:15:33.836Z,984.63
2017-06-01T05:16:44.109Z,984.61
2017-06-01T05:17:54.072Z,984.63
2017-06-01T05:19:04.017Z,984.59
2017-06-01T05:20:14.271Z,984.57
2017-06-01T05:21:24.216Z,984.57
2017-06-01T05:22:34.476Z,984.58
2017-06-01T05:23:44.488Z,984.61
2017-06-01T05:24:54.121Z,984.55
2017-06-01T05:26:04.384Z,984.65
2017-06-01T05:27:14.645Z,984.57
2017-06-01T05:28:24.592Z,984.56
2017-06-01T05:29:34.536Z,984.59
2017-06-01T05:30:44.170Z,984.55
2017-06-01T05:31:54.122Z,984.64
2017-06-01T05:33:04.387Z,984.61
2017-06-01T05:34:14.336Z,984.64
2017-06-01T05:35:24.602Z,984.63
2017-06-01T05:36:34.866Z,984.58
2017-06-01T05:37:44.817Z,984.6
2017-06-01T05:38:54.760Z,984.68
2017-06-01T05:40:04.387Z,984.64
2017-06-01T05:41:14.026Z,984.63
2017-06-01T05:42:23.969Z,984.64
2017-06-01T05:43:33.916Z,984.64
2017-06-01T05:44:44.193Z,984.62
2017-06-01T05:45:54.139Z,984.64
2017-06-01T05:47:04.396Z,984.65
2017-06-01T05:48:14.030Z,984.59
2017-06-01T05:49:24.184Z,984.63
2017-06-01T05:50:34.124Z,984.59
2017-06-01T05:51:44.386Z,984.6
2017-06-01T05:52:54.649Z,984.61
2017-06-01T05:54:04.593Z,984.63
2017-06-01T05:55:14.858Z,984.63
2017-06-01T05:56:24.815Z,984.7
2017-06-01T05:57:35.076Z,984.68
2017-06-01T05:58:44.706Z,984.67
2017-06-01T05:59:55.175Z,984.7
2017-06-01T06:01:05.433Z,984.7
2017-06-01T06:02:14.763Z,984.71
2017-06-01T06:03:24.707Z,984.71
2017-06-01T06:04:34.199Z,984.7
2017-06-01T06:05:44.846Z,984.72
2017-06-01T06:06:55.104Z,984.73
2017-06-01T06:08:05.054Z,984.72
2017-06-01T06:09:15.316Z,984.72
2017-06-01T06:10:24.947Z,984.74
2017-06-01T06:11:35.215Z,984.77
2017-06-01T06:12:45.482Z,984.66
2017-06-01T06:13:55.113Z,984.63
2017-06-01T06:15:05.375Z,984.66
2017-06-01T06:16:15.630Z,984.68
2017-06-01T06:17:25.265Z,984.65
2017-06-01T06:18:35.217Z,984.69
2017-06-01T06:19:45.166Z,984.68
2017-06-01T06:20:55.161Z,984.71
2017-06-01T06:22:04.796Z,984.75
2017-06-01T06:23:14.428Z,984.76
2017-06-01T06:24:24.066Z,984.75
2017-06-01T06:25:33.699Z,984.75
2017-06-01T06:26:43.648Z,984.71
2017-06-01T06:27:53.656Z,984.79
2017-06-01T06:29:03.599Z,984.75
2017-06-01T06:30:13.867Z,984.71
2017-06-01T06:31:24.126Z,984.73
2017-06-01T06:32:34.070Z,984.72
2017-06-01T06:33:44.067Z,984.65
2017-06-01T06:34:54.010Z,984.7
2017-06-01T06:36:04.274Z,984.66
2017-06-01T06:37:14.529Z,984.64
2017-06-01T06:38:24.790Z,984.62
2017-06-01T06:39:34.740Z,984.66
2017-06-01T06:40:44.377Z,984.65
2017-06-01T06:41:54.643Z,984.67
2017-06-01T06:43:04.913Z,984.65
2017-06-01T06:44:14.545Z,984.64
2017-06-01T06:45:24.807Z,984.59
2017-06-01T06:46:34.753Z,984.6
2017-06-01T06:47:45.018Z,984.5
2017-06-01T06:48:55.281Z,984.6
2017-06-01T06:50:05.232Z,984.61
2017-06-01T06:51:15.189Z,984.63
2017-06-01T06:52:24.820Z,984.67
2017-06-01T06:53:34.456Z,984.53
2017-06-01T06:54:44.739Z,984.59
2017-06-01T06:55:54.996Z,984.51
2017-06-01T06:57:04.937Z,984.47
2017-06-01T06:58:15.201Z,984.47
2017-06-01T06:59:25.157Z,984.5
2017-06-01T07:00:34.787Z,984.53
2017-06-01T07:01:45.042Z,984.53
2017-06-01T07:02:55.305Z,984.53
2017-06-01T07:04:05.254Z,984.5
2017-06-01T07:05:15.200Z,984.61
2017-06-01T07:06:25.465Z,984.61
2017-06-01T07:07:35.727Z,984.6
2017-06-01T07:08:45.683Z,984.62
2017-06-01T07:09:55.627Z,984.57
2017-06-01T07:11:05.576Z,984.56
2017-06-01T07:12:14.901Z,984.54
2017-06-01T07:13:24.537Z,984.58
2017-06-01T07:14:34.477Z,984.58
2017-06-01T07:15:44.510Z,984.62
2017-06-01T07:16:54.150Z,984.56
2017-06-01T07:18:04.091Z,984.56
2017-06-01T07:19:13.724Z,984.53
2017-06-01T07:20:23.987Z,984.58
2017-06-01T07:21:33.934Z,984.57
2017-06-01T07:22:44.210Z,984.6
2017-06-01T07:23:54.195Z,984.59
2017-06-01T07:25:04.469Z,984.55
2017-06-01T07:26:14.419Z,984.64
2017-06-01T07:27:24.376Z,984.58
2017-06-01T07:28:34.642Z,984.6
2017-06-01T07:29:44.604Z,984.59
2017-06-01T07:30:54.868Z,984.62
2017-06-01T07:32:05.127Z,984.62
2017-06-01T07:33:14.763Z,984.61
2017-06-01T07:34:25.033Z,984.6
2017-06-01T07:35:34.983Z,984.62
2017-06-01T07:36:45.241Z,984.65
2017-06-01T07:37:55.189Z,984.56
2017-06-01T07:39:05.137Z,984.59
2017-06-01T07:40:14.466Z,984.55
2017-06-01T07:41:23.795Z,984.55
2017-06-01T07:42:34.051Z,984.54
2017-06-01T07:43:43.367Z,984.47
2017-06-01T07:44:53.638Z,984.5
2017-06-01T07:46:03.901Z,984.53
2017-06-01T07:47:14.162Z,984.5
2017-06-01T07:48:23.800Z,984.55
2017-06-01T07:49:34.080Z,984.53
2017-06-01T07:50:44.344Z,984.57
2017-06-01T07:51:54.610Z,984.58
2017-06-01T07:53:04.560Z,984.61
2017-06-01T07:54:14.822Z,984.63
2017-06-01T07:55:24.764Z,984.59
2017-06-01T07:56:35.022Z,984.61
2017-06-01T07:57:45.282Z,984.59
2017-06-01T07:58:55.237Z,984.58
2017-06-01T08:00:04.870Z,984.61
2017-06-01T08:01:14.508Z,984.59
2017-06-01T08:02:24.472Z,984.65
2017-06-01T08:03:34.107Z,984.64
2017-06-01T08:04:44.063Z,984.62
2017-06-01T08:05:54.326Z,984.56
2017-06-01T08:07:04.599Z,984.58
2017-06-01T08:08:14.863Z,984.58
2017-06-01T08:09:24.812Z,984.6
2017-06-01T08:10:34.446Z,984.53
2017-06-01T08:11:44.715Z,984.52
2017-06-01T08:12:54.693Z,984.53
2017-06-01T08:14:04.331Z,984.47
2017-06-01T08:15:14.600Z,984.48
2017-06-01T08:16:24.554Z,984.43
2017-06-01T08:17:34.503Z,984.45
2017-06-01T08:18:44.452Z,984.47
2017-06-01T08:19:54.461Z,984.47
2017-06-01T08:21:04.730Z,984.48
2017-06-01T08:22:14.361Z,984.44
2017-06-01T08:23:24.622Z,984.44
2017-06-01T08:24:34.255Z,984.49
2017-06-01T08:25:44.204Z,984.42
2017-06-01T08:26:54.153Z,984.46
2017-06-01T08:28:04.110Z,984.51
2017-06-01T08:29:13.753Z,984.53
2017-06-01T08:30:23.699Z,984.52
2017-06-01T08:31:32.759Z,984.53
2017-06-01T08:32:43.020Z,984.47
2017-06-01T08:33:52.973Z,984.42
2017-06-01T08:35:03.251Z,984.43
2017-06-01T08:36:13.206Z,984.39
2017-06-01T08:37:23.158Z,984.43
2017-06-01T08:38:33.111Z,984.41
2017-06-01T08:39:43.122Z,984.43
2017-06-01T08:40:53.387Z,984.43
2017-06-01T08:42:03.335Z,984.44
2017-06-01T08:43:12.663Z,984.45
2017-06-01T08:44:22.615Z,984.46
2017-06-01T08:45:32.565Z,984.43
2017-06-01T08:46:42.831Z,984.48
2017-06-01T08:47:53.099Z,984.47
2017-06-01T08:49:03.364Z,984.45
2017-06-01T08:50:12.685Z,984.44
2017-06-01T08:51:22.954Z,984.45
2017-06-01T08:52:33.215Z,984.49
2017-06-01T08:53:43.165Z,984.43
2017-06-01T08:54:53.437Z,984.42
2017-06-01T08:56:03.700Z,984.45
2017-06-01T08:57:13.340Z,984.51
2017-06-01T08:58:23.603Z,984.45
2017-06-01T08:59:33.555Z,984.45
2017-06-01T09:00:43.511Z,984.44
2017-06-01T09:01:53.773Z,984.52
2017-06-01T09:03:04.042Z,984.44
2017-06-01T09:04:13.684Z,984.43
2017-06-01T09:05:23.642Z,984.45
2017-06-01T09:06:33.587Z,984.42
2017-06-01T09:07:43.536Z,984.5
2017-06-01T09:08:53.175Z,984.51
2017-06-01T09:10:03.453Z,984.5
2017-06-01T09:11:13.403Z,984.49
2017-06-01T09:12:23.675Z,984.5
2017-06-01T09:13:33.631Z,984.54
2017-06-01T09:14:43.272Z,984.56
2017-06-01T09:15:53.541Z,984.57
2017-06-01T09:17:03.492Z,984.6
2017-06-01T09:18:13.441Z,984.56
2017-06-01T09:19:23.702Z,984.54
2017-06-01T09:20:33.657Z,984.56
2017-06-01T09:21:43.926Z,984.59
2017-06-01T09:22:53.568Z,984.56
2017-06-01T09:24:03.829Z,984.54
2017-06-01T09:25:14.093Z,984.53
2017-06-01T09:26:23.736Z,984.48
2017-06-01T09:27:33.694Z,984.46
2017-06-01T09:28:43.966Z,984.44
2017-06-01T09:29:53.605Z,984.41
2017-06-01T09:31:03.552Z,984.4
2017-06-01T09:32:13.190Z,984.41
2017-06-01T09:33:22.833Z,984.4
2017-06-01T09:34:33.105Z,984.37
2017-06-01T09:35:43.367Z,984.43
2017-06-01T09:36:53.635Z,984.36
2017-06-01T09:38:03.597Z,984.28
2017-06-01T09:39:13.558Z,984.25
2017-06-01T09:40:22.887Z,984.27
2017-06-01T09:41:33.152Z,984.28
2017-06-01T09:42:43.102Z,984.32
2017-06-01T09:43:53.370Z,984.34
2017-06-01T09:45:03.642Z,984.33
2017-06-01T09:46:13.590Z,984.31
2017-06-01T09:47:23.235Z,984.32
2017-06-01T09:48:33.510Z,984.29
2017-06-01T09:49:43.775Z,984.29
2017-06-01T09:50:53.783Z,984.3
2017-06-01T09:52:03.734Z,984.31
2017-06-01T09:53:13.688Z,984.28
2017-06-01T09:54:23.643Z,984.24
2017-06-01T09:55:33.596Z,984.24
2017-06-01T09:56:43.860Z,984.26
2017-06-01T09:57:54.337Z,984.26
2017-06-01T09:59:04.611Z,984.3
2017-06-01T10:00:14.878Z,984.27
2017-06-01T10:01:24.834Z,984.28
2017-06-01T10:02:34.790Z,984.28
2017-06-01T10:03:44.746Z,984.23
2017-06-01T10:04:54.709Z,984.21
2017-06-01T10:06:04.971Z,984.22
2017-06-01T10:07:14.613Z,984.18
2017-06-01T10:08:24.575Z,984.18
2017-06-01T10:09:34.847Z,984.15
2017-06-01T10:10:45.120Z,984.11
2017-06-01T10:11:55.071Z,984.1
2017-06-01T10:13:05.341Z,984.12
2017-06-01T10:14:15.315Z,984.11
2017-06-01T10:15:25.270Z,984.11
2017-06-01T10:16:35.227Z,984.1
2017-06-01T10:17:44.560Z,984.12
2017-06-01T10:18:54.828Z,984.11
2017-06-01T10:20:04.466Z,984.09
2017-06-01T10:21:14.741Z,984.07
2017-06-01T10:22:24.381Z,984.06
2017-06-01T10:23:34.020Z,984.08
2017-06-01T10:24:44.362Z,984.02
2017-06-01T10:25:54.315Z,984.01
2017-06-01T10:27:04.579Z,984.03
2017-06-01T10:28:14.747Z,984.02
2017-06-01T10:29:24.696Z,984.03
2017-06-01T10:30:34.964Z,984.07
2017-06-01T10:31:44.662Z,984.1
2017-06-01T10:32:54.621Z,984.04
2017-06-01T10:34:04.881Z,984.03
2017-06-01T10:35:14.521Z,983.99
2017-06-01T10:36:24.791Z,984.02
2017-06-01T10:37:34.745Z,983.99
2017-06-01T10:38:44.086Z,984
2017-06-01T10:39:54.352Z,983.99
2017-06-01T10:41:04.303Z,984.02
2017-06-01T10:42:14.570Z,983.99
2017-06-01T10:43:24.838Z,984.01
2017-06-01T10:44:35.110Z,983.95
2017-06-01T10:45:45.395Z,983.98
2017-06-01T10:46:55.358Z,984.01
2017-06-01T10:48:05.625Z,984.01
2017-06-01T10:49:15.588Z,983.98
2017-06-01T10:50:25.550Z,983.99
2017-06-01T10:51:35.195Z,983.97
2017-06-01T10:52:45.463Z,983.94
2017-06-01T10:53:55.423Z,983.94
2017-06-01T10:55:05.378Z,983.96
2017-06-01T10:56:14.702Z,983.97
2017-06-01T10:57:24.661Z,983.95
2017-06-01T10:58:34.927Z,983.9
2017-06-01T10:59:45.193Z,983.91
2017-06-01T11:00:55.152Z,983.93
2017-06-01T11:02:05.108Z,983.95
2017-06-01T11:03:14.754Z,983.94
2017-06-01T11:04:24.709Z,983.94
2017-06-01T11:05:34.981Z,983.95
2017-06-01T11:06:45.252Z,983.97
2017-06-01T11:07:55.517Z,983.97
2017-06-01T11:09:05.781Z,984.01
2017-06-01T11:10:15.428Z,983.96
2017-06-01T11:11:25.383Z,983.97
2017-06-01T11:12:35.340Z,983.95
2017-06-01T11:13:45.619Z,983.92
2017-06-01T11:14:55.569Z,983.92
2017-06-01T11:16:05.836Z,983.96
2017-06-01T11:17:15.176Z,983.96
2017-06-01T11:18:25.117Z,983.92
2017-06-01T11:19:35.385Z,983.94
2017-06-01T11:20:45.657Z,983.88
2017-06-01T11:21:55.926Z,983.9
2017-06-01T11:23:05.572Z,983.87
2017-06-01T11:24:15.536Z,983.88
2017-06-01T11:25:25.801Z,983.84
2017-06-01T11:26:35.762Z,983.87
2017-06-01T11:27:45.721Z,983.91
2017-06-01T11:28:55.673Z,983.89
2017-06-01T11:30:05.936Z,983.88
2017-06-01T11:31:15.603Z,983.86
2017-06-01T11:32:25.865Z,983.88
2017-06-01T11:33:35.815Z,983.83
2017-06-01T11:34:45.767Z,983.81
2017-06-01T11:35:56.045Z,983.79
2017-06-01T11:37:06.003Z,983.76
2017-06-01T11:38:16.446Z,983.83
2017-06-01T11:39:26.914Z,983.81
2017-06-01T11:40:37.541Z,983.84
2017-06-01T11:41:47.801Z,983.86
2017-06-01T11:42:57.446Z,983.85
2017-06-01T11:44:07.394Z,983.87
2017-06-01T11:45:16.729Z,983.88
2017-06-01T11:46:27.003Z,983.81
2017-06-01T11:47:36.642Z,983.84
2017-06-01T11:48:46.971Z,983.84
2017-06-01T11:49:56.927Z,983.83
2017-06-01T11:51:06.572Z,983.82
2017-06-01T11:52:16.838Z,983.81
2017-06-01T11:53:27.112Z,983.83
2017-06-01T11:54:37.381Z,983.83
2017-06-01T11:55:47.651Z,983.8
2017-06-01T11:56:57.297Z,983.82
2017-06-01T11:58:07.272Z,983.83
2017-06-01T11:59:17.225Z,983.82
2017-06-01T12:00:26.863Z,983.73
2017-06-01T12:01:36.818Z,983.82
2017-06-01T12:02:46.777Z,984.09
2017-06-01T12:03:56.098Z,984
2017-06-01T12:05:06.369Z,984
2017-06-01T12:06:15.382Z,983.97
2017-06-01T12:07:25.647Z,983.91
2017-06-01T12:08:35.919Z,983.92
2017-06-01T12:09:45.565Z,983.92
2017-06-01T12:10:55.531Z,983.91
2017-06-01T12:12:05.189Z,983.86
2017-06-01T12:13:15.143Z,983.9
2017-06-01T12:14:24.796Z,983.86
2017-06-01T12:15:35.084Z,983.81
2017-06-01T12:16:45.361Z,983.84
2017-06-01T12:17:55.009Z,983.83
2017-06-01T12:19:04.976Z,983.78
2017-06-01T12:20:14.942Z,983.82
2017-06-01T12:21:25.222Z,983.81
2017-06-01T12:22:35.506Z,983.81
2017-06-01T12:23:45.794Z,983.75
2017-06-01T12:24:55.451Z,983.79
2017-06-01T12:26:05.415Z,983.7
2017-06-01T12:27:15.398Z,983.67
2017-06-01T12:28:25.064Z,983.69
2017-06-01T12:29:35.345Z,983.69
2017-06-01T12:30:45.640Z,983.74
2017-06-01T12:31:55.612Z,983.71
2017-06-01T12:33:05.947Z,983.67
2017-06-01T12:34:15.613Z,983.68
2017-06-01T12:35:25.584Z,983.73
2017-06-01T12:36:35.559Z,983.73
2017-06-01T12:37:45.219Z,983.74
2017-06-01T12:38:55.511Z,983.84
2017-06-01T12:40:05.802Z,983.77
2017-06-01T12:41:15.788Z,983.78
2017-06-01T12:42:26.081Z,983.82
2017-06-01T12:43:36.060Z,983.72
2017-06-01T12:44:46.348Z,983.92
2017-06-01T12:45:56.322Z,983.9
2017-06-01T12:47:06.294Z,983.59
2017-06-01T12:48:15.958Z,983.46
2017-06-01T12:49:25.931Z,983.99
2017-06-01T12:50:36.225Z,983.52
2017-06-01T12:51:46.199Z,983.53
2017-06-01T12:52:56.486Z,983.5
2017-06-01T12:54:06.771Z,983.58
2017-06-01T12:55:16.118Z,983.57
2017-06-01T12:56:26.093Z,983.59
2017-06-01T12:57:36.372Z,983.57
2017-06-01T12:58:46.341Z,983.62
2017-06-01T12:59:56.325Z,983.66
2017-06-01T13:01:06.617Z,983.65
2017-06-01T13:02:16.269Z,983.88
2017-06-01T13:03:25.607Z,983.67
2017-06-01T13:04:35.885Z,983.62
2017-06-01T13:05:46.167Z,983.56
2017-06-01T13:06:56.132Z,983.61
2017-06-01T13:08:06.095Z,983.48
2017-06-01T13:09:16.379Z,983.56
2017-06-01T13:10:26.653Z,984.25
2017-06-01T13:11:36.935Z,984.17
2017-06-01T13:12:46.268Z,984.21
2017-06-01T13:13:55.925Z,983.62
2017-06-01T13:15:05.905Z,984.14
2017-06-01T13:16:15.561Z,984.01
2017-06-01T13:17:25.840Z,984.19
2017-06-01T13:18:35.180Z,984.05
2017-06-01T13:19:45.473Z,984.13
2017-06-01T13:20:55.766Z,984.09
2017-06-01T13:22:06.049Z,984.08
2017-06-01T13:23:16.025Z,984.06
2017-06-01T13:24:25.993Z,983.55
2017-06-01T13:25:35.961Z,983.97
2017-06-01T13:26:45.934Z,983.93
2017-06-01T13:27:55.909Z,984.02
2017-06-01T13:29:05.889Z,983.98
2017-06-01T13:30:15.867Z,984.02
2017-06-01T13:31:26.155Z,983.96
2017-06-01T13:32:36.443Z,983.96
2017-06-01T13:33:46.731Z,984
2017-06-01T13:34:56.077Z,983.88
2017-06-01T13:36:06.050Z,983.92
2017-06-01T13:37:15.703Z,983.92
2017-06-01T13:38:25.671Z,983.89
2017-06-01T13:39:35.966Z,983.95
2017-06-01T13:40:45.944Z,983.91
2017-06-01T13:41:55.920Z,983.92
2017-06-01T13:43:05.894Z,983.9
2017-06-01T13:44:15.863Z,983.89
2017-06-01T13:45:25.835Z,983.94
2017-06-01T13:46:35.822Z,983.96
2017-06-01T13:47:46.110Z,983.95
2017-06-01T13:48:56.390Z,983.97
2017-06-01T13:50:06.041Z,983.94
2017-06-01T13:51:16.009Z,983.94
2017-06-01T13:52:25.981Z,983.93
2017-06-01T13:53:36.269Z,983.93
2017-06-01T13:54:46.240Z,983.63
2017-06-01T13:55:55.901Z,983.94
2017-06-01T13:57:06.188Z,983.84
2017-06-01T13:58:16.159Z,983.37
2017-06-01T13:59:26.450Z,983.86
2017-06-01T14:00:36.425Z,983.83
2017-06-01T14:01:46.389Z,983.78
2017-06-01T14:02:56.038Z,983.77
2017-06-01T14:04:06.323Z,983.76
2017-06-01T14:05:16.311Z,983.76
2017-06-01T14:06:26.597Z,983.88
2017-06-01T14:07:36.881Z,983.96
2017-06-01T14:08:46.539Z,984.09
2017-06-01T14:09:56.533Z,983.94
2017-06-01T14:11:06.191Z,984.03
2017-06-01T14:12:16.173Z,983.46
2017-06-01T14:13:26.146Z,983.38
2017-06-01T14:14:36.117Z,984.41
2017-06-01T14:15:46.096Z,983.39
2017-06-01T14:16:56.066Z,983.68
2017-06-01T14:18:06.348Z,983.97
2017-06-01T14:19:17.902Z,984.07
2017-06-01T14:20:27.584Z,984.65
2017-06-01T14:21:37.866Z,984.2
2017-06-01T14:22:48.165Z,984.41
2017-06-01T14:23:58.134Z,984.32
2017-06-01T14:25:08.106Z,984.39
2017-06-01T14:26:18.081Z,984.46
2017-06-01T14:27:28.062Z,984.41
2017-06-01T14:28:38.033Z,984.35
2017-06-01T14:29:48.005Z,984.33
2017-06-01T14:30:57.977Z,984.32
2017-06-01T14:32:08.266Z,984.37
2017-06-01T14:33:18.553Z,984.36
2017-06-01T14:34:28.525Z,984.38
2017-06-01T14:35:38.498Z,984.32
2017-06-01T14:36:48.474Z,984.31
2017-06-01T14:37:58.760Z,984.38